Time;durP1;ratioP1;P1;durP2;ratioP2;P2;SDS_P1;SDS_P2;PMS_P1;PMS_P2;Temp;Humidity;BMP_temperature;BMP_pressure;BME280_temperature;BME280_humidity;BME280_pressure;Samples;Min_cycle;Max_cycle;Signal;HPM_P1;HPM_P2
2023/07/03 00:00:20;;;;;;;15.68;6.38;;;15.20;77.30;;;;;;5067661;28;20040;-50
2023/07/03 00:02:52;;;;;;;16.63;6.38;;;15.20;77.20;;;;;;5053026;28;20439;-48
2023/07/03 00:05:20;;;;;;;19.00;6.88;;;15.20;77.20;;;;;;5053574;28;20037;-48
2023/07/03 00:07:50;;;;;;;17.83;7.25;;;15.20;77.10;;;;;;5052402;28;20124;-49
2023/07/03 00:10:17;;;;;;;10.20;6.07;;;15.20;77.20;;;;;;5046210;28;20039;-51
2023/07/03 00:12:47;;;;;;;16.27;6.25;;;15.10;77.10;;;;;;5055398;28;20052;-49
2023/07/03 00:15:13;;;;;;;15.27;7.13;;;15.10;77.00;;;;;;5053104;28;20479;-51
2023/07/03 00:17:44;;;;;;;16.27;6.32;;;15.10;76.80;;;;;;5067904;28;20044;-48
2023/07/03 00:20:14;;;;;;;11.95;5.70;;;15.10;76.70;;;;;;5074525;28;20043;-48
2023/07/03 00:22:42;;;;;;;10.98;5.97;;;15.10;76.70;;;;;;5057106;28;20029;-48
2023/07/03 00:25:09;;;;;;;13.57;6.25;;;15.10;76.90;;;;;;5071590;28;20029;-50
2023/07/03 00:27:36;;;;;;;19.15;6.32;;;15.10;77.20;;;;;;5074580;28;20025;-50
2023/07/03 00:30:05;;;;;;;16.90;6.78;;;15.10;77.40;;;;;;5073162;28;20658;-50
2023/07/03 00:32:32;;;;;;;11.15;5.38;;;15.10;77.50;;;;;;5074044;28;20467;-48
2023/07/03 00:34:59;;;;;;;14.25;7.13;;;15.10;77.70;;;;;;5074911;28;20095;-48
2023/07/03 00:37:26;;;;;;;15.40;7.03;;;15.10;77.60;;;;;;5071997;28;20087;-49
2023/07/03 00:39:53;;;;;;;13.65;6.90;;;15.10;77.60;;;;;;5059500;28;20028;-50
2023/07/03 00:42:24;;;;;;;16.95;7.07;;;15.10;77.80;;;;;;5074806;28;20043;-49
2023/07/03 00:44:51;;;;;;;18.67;7.15;;;15.10;77.80;;;;;;5075221;28;20484;-49
2023/07/03 00:47:19;;;;;;;11.57;5.63;;;15.10;77.60;;;;;;5071771;28;20040;-52
2023/07/03 00:49:45;;;;;;;20.70;7.45;;;15.10;77.90;;;;;;5046170;28;20021;-48
2023/07/03 00:52:13;;;;;;;14.57;6.00;;;15.10;77.80;;;;;;5055004;28;20025;-47
2023/07/03 00:54:42;;;;;;;11.70;5.43;;;15.10;77.80;;;;;;5056704;28;20044;-51
2023/07/03 00:57:18;;;;;;;13.85;5.70;;;15.10;77.70;;;;;;5069940;28;20024;-48
2023/07/03 00:59:45;;;;;;;10.20;5.53;;;15.10;77.80;;;;;;5074559;28;20028;-50
2023/07/03 01:02:22;;;;;;;17.73;5.72;;;15.20;77.60;;;;;;5064315;28;20358;-49
2023/07/03 01:05:09;;;;;;;11.70;6.15;;;15.20;77.50;;;;;;5054680;28;20339;-52
2023/07/03 01:07:38;;;;;;;13.15;5.93;;;15.20;77.50;;;;;;5072458;28;20489;-51
2023/07/03 01:10:15;;;;;;;15.68;6.70;;;15.20;77.40;;;;;;5055655;28;20497;-51
2023/07/03 01:12:47;;;;;;;12.25;5.07;;;15.20;77.50;;;;;;5072712;28;20067;-48
2023/07/03 01:15:19;;;;;;;14.13;6.82;;;15.20;77.70;;;;;;5053411;28;20099;-47
2023/07/03 01:17:47;;;;;;;13.07;6.15;;;15.20;77.60;;;;;;5070954;28;20515;-48
2023/07/03 01:20:20;;;;;;;16.95;7.03;;;15.30;77.30;;;;;;5074136;28;20110;-49
2023/07/03 01:23:07;;;;;;;16.42;5.25;;;15.20;77.20;;;;;;5073101;28;20028;-47
2023/07/03 01:25:38;;;;;;;13.35;5.03;;;15.20;77.10;;;;;;5067035;28;20044;-49
2023/07/03 01:28:07;;;;;;;11.68;5.10;;;15.20;76.90;;;;;;5052170;28;20064;-49
2023/07/03 01:30:36;;;;;;;13.13;5.10;;;15.30;76.80;;;;;;5056145;28;20037;-47
2023/07/03 01:33:04;;;;;;;12.17;5.27;;;15.30;76.80;;;;;;5073931;28;20028;-47
2023/07/03 01:35:31;;;;;;;13.13;6.22;;;15.30;76.80;;;;;;5055088;28;20634;-49
2023/07/03 01:38:01;;;;;;;14.77;5.65;;;15.30;76.90;;;;;;5073841;28;20633;-47
2023/07/03 01:40:28;;;;;;;14.35;5.03;;;15.30;77.00;;;;;;5071098;28;20033;-49
2023/07/03 01:42:57;;;;;;;12.75;5.90;;;15.20;77.40;;;;;;5065227;28;20043;-49
2023/07/03 01:45:24;;;;;;;12.85;5.40;;;15.20;77.30;;;;;;5061152;28;21925;-47
2023/07/03 01:47:53;;;;;;;12.30;5.60;;;15.20;77.40;;;;;;5050826;28;20044;-47
2023/07/03 01:50:24;;;;;;;16.75;5.25;;;15.10;77.80;;;;;;5053161;28;20447;-47
2023/07/03 01:53:06;;;;;;;15.30;5.82;;;15.10;77.70;;;;;;5055313;28;20040;-47
2023/07/03 01:55:48;;;;;;;11.45;4.78;;;15.20;77.50;;;;;;5064065;28;20032;-47
2023/07/03 01:58:23;;;;;;;13.02;4.85;;;15.20;76.10;;;;;;5072139;28;20420;-48
2023/07/03 02:01:03;;;;;;;10.40;4.40;;;15.20;74.80;;;;;;5070786;28;20107;-50
2023/07/03 02:03:49;;;;;;;;;;;15.30;74.70;;;;;;5073881;28;20046;-47
2023/07/03 02:06:24;;;;;;;11.00;3.88;;;15.30;74.60;;;;;;5053366;28;19924;-49
2023/07/03 02:08:51;;;;;;;9.80;3.60;;;15.30;75.40;;;;;;5053090;28;20032;-47
2023/07/03 02:11:21;;;;;;;13.20;4.18;;;15.20;75.60;;;;;;5041922;28;20059;-46
2023/07/03 02:13:51;;;;;;;10.43;4.05;;;15.30;76.20;;;;;;5072348;28;20047;-47
2023/07/03 02:16:16;;;;;;;14.05;3.95;;;15.20;76.60;;;;;;5058031;28;20053;-48
2023/07/03 02:18:49;;;;;;;8.30;3.60;;;15.10;76.80;;;;;;5053207;28;20040;-50
2023/07/03 02:21:16;;;;;;;9.07;3.78;;;15.20;76.90;;;;;;5053640;28;20776;-47
2023/07/03 02:23:45;;;;;;;10.82;4.13;;;15.00;76.90;;;;;;5068343;28;20033;-51
2023/07/03 02:26:15;;;;;;;12.90;4.10;;;15.00;77.00;;;;;;5066279;28;20021;-49
2023/07/03 02:28:41;;;;;;;14.15;3.90;;;14.90;77.00;;;;;;5069916;28;20028;-48
2023/07/03 02:31:07;;;;;;;10.63;4.13;;;14.90;77.30;;;;;;5071599;28;20036;-47
2023/07/03 02:33:34;;;;;;;13.00;3.92;;;14.90;77.50;;;;;;5050422;28;20032;-50
2023/07/03 02:36:04;;;;;;;14.13;4.88;;;15.00;77.70;;;;;;5067297;28;20036;-50
2023/07/03 02:38:31;;;;;;;15.18;4.30;;;14.90;77.90;;;;;;5053908;28;20117;-48
2023/07/03 02:41:02;;;;;;;11.93;4.00;;;14.90;78.30;;;;;;5066230;28;20349;-47
2023/07/03 02:43:32;;;;;;;12.88;3.80;;;15.00;78.50;;;;;;5064912;28;20028;-51
2023/07/03 02:46:07;;;;;;;12.40;4.72;;;14.90;78.50;;;;;;5058773;28;20059;-50
2023/07/03 02:48:34;;;;;;;15.73;6.05;;;14.90;78.70;;;;;;5053614;28;20442;-50
2023/07/03 02:51:01;;;;;;;9.27;5.05;;;14.90;79.30;;;;;;5052701;28;20039;-50
2023/07/03 02:53:31;;;;;;;14.70;5.13;;;14.90;79.40;;;;;;5067942;28;20097;-47
2023/07/03 02:55:57;;;;;;;8.80;4.28;;;14.90;79.60;;;;;;5053396;28;20032;-50
2023/07/03 02:58:27;;;;;;;11.35;5.72;;;14.80;79.90;;;;;;5054978;28;20427;-47
2023/07/03 03:00:54;;;;;;;;;;;14.70;80.10;;;;;;5070031;28;20446;-47
2023/07/03 03:03:21;;;;;;;14.10;6.82;;;14.70;80.30;;;;;;5054287;28;19908;-47
2023/07/03 03:05:48;;;;;;;15.65;5.20;;;14.60;80.50;;;;;;5072033;28;20092;-50
2023/07/03 03:08:17;;;;;;;13.82;5.60;;;14.60;80.70;;;;;;5062321;28;20073;-49
2023/07/03 03:10:46;;;;;;;10.50;5.22;;;14.60;80.70;;;;;;5062328;28;20056;-50
2023/07/03 03:13:13;;;;;;;11.93;4.85;;;14.60;80.50;;;;;;5071473;28;20044;-51
2023/07/03 03:15:42;;;;;;;15.00;5.32;;;14.60;80.20;;;;;;5056787;28;20482;-49
2023/07/03 03:18:09;;;;;;;13.15;5.70;;;14.60;80.50;;;;;;5052025;28;20154;-47
2023/07/03 03:20:36;;;;;;;14.25;4.43;;;14.60;80.50;;;;;;5053506;28;20029;-47
2023/07/03 03:23:03;;;;;;;10.65;5.38;;;14.60;80.40;;;;;;5050639;28;20064;-49
2023/07/03 03:25:30;;;;;;;13.52;5.70;;;14.50;80.50;;;;;;5053037;28;20032;-48
2023/07/03 03:27:57;;;;;;;13.40;5.25;;;14.50;80.40;;;;;;5056248;28;20044;-47
2023/07/03 03:30:25;;;;;;;11.93;4.65;;;14.40;80.50;;;;;;5050334;28;20073;-47
2023/07/03 03:32:52;;;;;;;13.70;4.82;;;14.40;80.60;;;;;;5038079;28;20112;-47
2023/07/03 03:35:19;;;;;;;13.15;5.13;;;14.40;80.60;;;;;;5054872;28;20375;-48
2023/07/03 03:37:44;;;;;;;12.27;4.95;;;14.40;80.60;;;;;;5049700;28;20030;-47
2023/07/03 03:40:14;;;;;;;11.30;4.75;;;14.40;80.60;;;;;;5041297;28;20477;-48
2023/07/03 03:42:41;;;;;;;19.48;5.43;;;14.40;80.50;;;;;;5050565;28;20029;-46
2023/07/03 03:45:11;;;;;;;17.65;5.53;;;14.40;80.60;;;;;;5051520;28;20025;-49
2023/07/03 03:47:38;;;;;;;19.00;5.55;;;14.40;80.60;;;;;;5052569;28;20522;-48
2023/07/03 03:50:05;;;;;;;15.88;6.25;;;14.40;80.70;;;;;;5055848;28;20396;-47
2023/07/03 03:52:32;;;;;;;16.23;6.05;;;14.40;80.50;;;;;;5045784;28;20026;-47
2023/07/03 03:54:59;;;;;;;11.77;5.10;;;14.40;80.80;;;;;;5041122;28;20082;-47
2023/07/03 03:57:28;;;;;;;11.60;4.88;;;14.40;81.00;;;;;;5052255;28;20067;-47
2023/07/03 03:59:56;;;;;;;15.85;4.82;;;14.40;80.90;;;;;;5048557;28;20026;-47
2023/07/03 04:02:25;;;;;;;16.17;5.32;;;14.40;80.70;;;;;;5052429;28;20063;-47
2023/07/03 04:04:52;;;;;;;13.90;4.20;;;14.40;80.70;;;;;;5052727;28;20025;-47
2023/07/03 04:07:19;;;;;;;19.30;6.22;;;14.40;80.90;;;;;;5051977;28;20029;-48
2023/07/03 04:09:45;;;;;;;11.35;4.60;;;14.40;80.90;;;;;;5051536;28;20024;-51
2023/07/03 04:12:11;;;;;;;13.50;5.53;;;14.40;80.90;;;;;;5054150;28;20443;-47
2023/07/03 04:14:38;;;;;;;16.13;5.85;;;14.50;80.50;;;;;;5037715;28;20061;-49
2023/07/03 04:17:08;;;;;;;11.80;4.28;;;14.60;80.60;;;;;;5069059;28;20048;-47
2023/07/03 04:19:38;;;;;;;12.18;4.90;;;14.70;79.80;;;;;;5071124;28;20035;-48
2023/07/03 04:22:07;;;;;;;14.77;4.22;;;14.80;79.30;;;;;;5069692;28;20430;-47
2023/07/03 04:24:34;;;;;;;12.73;4.63;;;14.90;78.90;;;;;;5055507;28;20043;-48
2023/07/03 04:27:02;;;;;;;10.85;4.50;;;14.90;78.30;;;;;;5066025;28;20346;-48
2023/07/03 04:29:28;;;;;;;12.30;4.47;;;15.00;78.40;;;;;;5054355;28;20044;-50
2023/07/03 04:31:59;;;;;;;12.27;4.00;;;15.00;77.90;;;;;;5069157;28;20392;-48
2023/07/03 04:34:25;;;;;;;13.00;3.70;;;15.10;77.70;;;;;;5074004;28;20064;-48
2023/07/03 04:36:52;;;;;;;13.20;3.80;;;15.20;77.00;;;;;;5053347;28;20110;-47
2023/07/03 04:39:19;;;;;;;11.13;3.78;;;15.30;77.00;;;;;;5054954;28;20034;-47
2023/07/03 04:41:46;;;;;;;13.32;3.95;;;15.30;76.90;;;;;;5067818;28;20173;-49
2023/07/03 04:44:13;;;;;;;12.52;4.53;;;15.40;76.90;;;;;;5074177;28;20027;-48
2023/07/03 04:46:43;;;;;;;8.45;3.20;;;15.40;76.90;;;;;;5074145;28;20039;-47
2023/07/03 04:49:10;;;;;;;;;;;15.50;77.00;;;;;;5075208;28;20115;-47
2023/07/03 04:51:39;;;;;;;12.35;3.80;;;15.50;76.80;;;;;;5074615;28;19908;-48
2023/07/03 04:54:07;;;;;;;11.03;3.30;;;15.40;77.40;;;;;;5066580;28;20029;-48
2023/07/03 04:56:34;;;;;;;12.50;4.55;;;15.40;77.40;;;;;;5060169;28;20047;-47
2023/07/03 04:59:02;;;;;;;12.07;4.03;;;15.40;77.60;;;;;;5072561;28;20033;-47
2023/07/03 05:01:30;;;;;;;11.13;3.10;;;15.20;77.20;;;;;;5064300;28;20029;-47
2023/07/03 05:03:56;;;;;;;9.23;3.30;;;15.10;77.40;;;;;;5071659;28;20363;-48
2023/07/03 05:06:25;;;;;;;11.98;3.63;;;15.10;77.60;;;;;;5072742;28;20024;-47
2023/07/03 05:08:52;;;;;;;12.60;3.58;;;15.10;77.70;;;;;;5069137;28;20028;-50
2023/07/03 05:11:19;;;;;;;11.75;3.35;;;15.20;77.20;;;;;;5072622;28;20515;-48
2023/07/03 05:13:46;;;;;;;14.30;4.38;;;15.30;76.80;;;;;;5072573;28;20020;-49
2023/07/03 05:16:14;;;;;;;12.95;3.13;;;15.50;75.60;;;;;;5072944;28;20041;-47
2023/07/03 05:18:43;;;;;;;10.43;2.70;;;15.70;75.00;;;;;;5054303;28;20033;-48
2023/07/03 05:21:11;;;;;;;9.10;2.28;;;15.70;74.40;;;;;;5073185;28;20473;-49
2023/07/03 05:23:37;;;;;;;6.93;2.60;;;15.70;73.00;;;;;;5072428;28;20033;-49
2023/07/03 05:26:06;;;;;;;9.68;3.17;;;15.70;73.60;;;;;;5070413;28;20447;-49
2023/07/03 05:28:33;;;;;;;14.80;2.72;;;15.60;73.20;;;;;;5067379;28;20032;-48
2023/07/03 05:31:00;;;;;;;9.93;2.47;;;15.50;73.30;;;;;;5060133;28;20090;-52
2023/07/03 05:33:27;;;;;;;8.65;2.55;;;15.60;73.80;;;;;;5071634;28;20059;-48
2023/07/03 05:36:04;;;;;;;12.27;3.15;;;15.60;73.90;;;;;;5070435;28;20036;-48
2023/07/03 05:38:31;;;;;;;5.50;2.17;;;15.70;73.80;;;;;;5073115;28;20059;-48
2023/07/03 05:40:59;;;;;;;7.18;2.85;;;15.80;73.10;;;;;;5071845;28;20019;-50
2023/07/03 05:43:26;;;;;;;9.00;2.08;;;15.90;72.60;;;;;;5056091;28;20032;-51
2023/07/03 05:45:53;;;;;;;7.78;1.80;;;16.00;73.10;;;;;;5072306;28;20117;-48
2023/07/03 05:48:19;;;;;;;7.80;2.65;;;16.10;72.50;;;;;;5061832;28;20041;-50
2023/07/03 05:50:46;;;;;;;8.73;2.33;;;16.10;71.90;;;;;;5070061;28;20033;-52
2023/07/03 05:53:13;;;;;;;7.78;2.55;;;16.10;71.80;;;;;;5069301;28;20381;-48
2023/07/03 05:55:53;;;;;;;6.00;1.77;;;16.20;72.40;;;;;;5071676;28;20438;-48
2023/07/03 05:58:20;;;;;;;8.57;2.13;;;16.20;71.90;;;;;;5067222;28;20450;-48
2023/07/03 06:00:48;;;;;;;10.82;2.60;;;16.20;71.80;;;;;;5057570;28;20060;-48
2023/07/03 06:03:16;;;;;;;11.57;3.70;;;16.30;72.20;;;;;;5069987;28;20028;-48
2023/07/03 06:05:43;;;;;;;11.25;2.55;;;16.20;74.60;;;;;;5059102;28;20024;-45
2023/07/03 06:08:10;;;;;;;11.07;3.08;;;16.10;75.30;;;;;;5072002;28;20032;-45
2023/07/03 06:10:38;;;;;;;24.58;3.45;;;16.10;76.20;;;;;;5071699;28;20036;-44
2023/07/03 06:13:08;;;;;;;7.90;2.50;;;15.90;77.50;;;;;;5063818;28;20025;-44
2023/07/03 06:15:36;;;;;;;8.65;2.63;;;15.80;78.60;;;;;;5070351;28;20045;-45
2023/07/03 06:18:04;;;;;;;14.20;3.00;;;15.70;79.50;;;;;;5072572;28;20020;-46
2023/07/03 06:20:34;;;;;;;12.50;3.22;;;15.90;79.40;;;;;;5072567;28;20082;-46
2023/07/03 06:23:00;;;;;;;;;;;16.10;79.30;;;;;;5058988;28;20796;-46
2023/07/03 06:25:27;;;;;;;15.52;3.53;;;16.30;79.20;;;;;;5063622;28;19908;-47
2023/07/03 06:27:53;;;;;;;10.13;2.75;;;16.50;78.20;;;;;;5072368;28;20028;-47
2023/07/03 06:30:22;;;;;;;10.55;3.13;;;16.90;78.00;;;;;;5052513;28;20479;-48
2023/07/03 06:32:49;;;;;;;11.80;3.17;;;16.80;76.60;;;;;;5051894;28;20071;-50
2023/07/03 06:35:16;;;;;;;11.30;3.22;;;16.80;75.60;;;;;;5054876;28;20056;-48
2023/07/03 06:37:43;;;;;;;10.82;3.13;;;16.70;76.00;;;;;;5060355;28;20097;-48
2023/07/03 06:40:11;;;;;;;9.40;3.63;;;16.80;76.80;;;;;;5058260;28;20043;-47
2023/07/03 06:42:38;;;;;;;7.72;2.70;;;16.60;76.30;;;;;;5068549;28;20032;-52
2023/07/03 06:45:06;;;;;;;14.43;3.75;;;16.80;76.60;;;;;;5069376;28;20036;-50
2023/07/03 06:47:32;;;;;;;12.90;3.10;;;16.90;75.70;;;;;;5063861;28;20164;-48
2023/07/03 06:50:02;;;;;;;10.05;2.67;;;17.00;73.90;;;;;;5065998;28;20043;-49
2023/07/03 06:52:27;;;;;;;8.25;2.40;;;17.20;74.40;;;;;;5065406;28;20461;-49
2023/07/03 06:54:54;;;;;;;13.68;2.30;;;17.30;73.10;;;;;;5070827;28;20164;-53
2023/07/03 06:57:21;;;;;;;8.27;2.65;;;17.40;72.70;;;;;;5071093;28;20028;-52
2023/07/03 06:59:50;;;;;;;9.50;2.60;;;17.40;72.20;;;;;;5037592;28;20028;-51
2023/07/03 07:02:17;;;;;;;10.73;3.20;;;17.60;72.40;;;;;;5068722;28;20434;-51
2023/07/03 07:04:45;;;;;;;9.13;2.80;;;17.70;72.10;;;;;;5062672;28;20057;-49
2023/07/03 07:07:12;;;;;;;11.32;2.50;;;17.90;71.90;;;;;;5066508;28;20509;-51
2023/07/03 07:09:39;;;;;;;10.30;3.15;;;17.80;71.30;;;;;;5053764;28;20097;-51
2023/07/03 07:12:10;;;;;;;15.40;3.45;;;18.00;72.50;;;;;;5061471;28;20496;-47
2023/07/03 07:14:37;;;;;;;8.65;2.40;;;18.20;73.90;;;;;;5064505;28;20028;-50
2023/07/03 07:17:04;;;;;;;8.95;2.67;;;17.80;72.50;;;;;;5038238;28;20049;-46
2023/07/03 07:19:31;;;;;;;8.63;2.83;;;17.00;73.50;;;;;;5050099;28;20048;-50
2023/07/03 07:21:58;;;;;;;14.93;3.17;;;16.90;75.30;;;;;;5050841;28;20119;-46
2023/07/03 07:24:24;;;;;;;9.02;3.42;;;16.50;77.10;;;;;;5048558;28;20028;-42
2023/07/03 07:26:54;;;;;;;11.48;3.03;;;16.40;78.50;;;;;;5044523;28;20146;-44
2023/07/03 07:29:24;;;;;;;7.65;2.00;;;16.30;79.60;;;;;;5050941;28;20033;-44
2023/07/03 07:31:55;;;;;;;17.25;2.60;;;16.30;80.60;;;;;;5052251;28;20056;-43
2023/07/03 07:34:24;;;;;;;18.50;3.88;;;16.20;80.70;;;;;;5051285;28;20518;-43
2023/07/03 07:36:51;;;;;;;9.52;2.50;;;16.10;81.50;;;;;;5047933;28;20049;-43
2023/07/03 07:39:20;;;;;;;9.27;2.13;;;16.20;81.50;;;;;;5049825;28;20111;-43
2023/07/03 07:41:51;;;;;;;7.88;2.55;;;16.40;81.40;;;;;;5046503;28;20028;-44
2023/07/03 07:44:18;;;;;;;10.60;3.70;;;16.40;79.10;;;;;;5047943;28;20105;-45
2023/07/03 07:46:45;;;;;;;9.63;2.35;;;16.40;79.90;;;;;;5048575;28;20033;-44
2023/07/03 07:49:13;;;;;;;10.32;2.78;;;16.80;78.90;;;;;;5020086;28;20033;-45
2023/07/03 07:51:40;;;;;;;12.93;5.65;;;17.30;77.50;;;;;;5049318;28;20037;-46
2023/07/03 07:54:08;;;;;;;12.23;3.15;;;17.70;76.80;;;;;;5047674;28;20055;-46
2023/07/03 07:56:35;;;;;;;24.65;7.10;;;18.40;76.50;;;;;;5049776;28;20047;-49
2023/07/03 07:59:02;;;;;;;15.75;4.20;;;18.90;71.50;;;;;;5030626;28;20091;-48
2023/07/03 08:01:29;;;;;;;14.70;3.25;;;18.90;69.50;;;;;;5048150;28;20094;-47
2023/07/03 08:03:56;;;;;;;10.25;1.80;;;19.30;69.20;;;;;;5049722;28;20063;-48
2023/07/03 08:06:23;;;;;;;9.68;2.55;;;19.50;66.50;;;;;;5051466;28;20016;-48
2023/07/03 08:08:51;;;;;;;6.57;2.15;;;20.10;65.90;;;;;;5052729;28;20033;-52
2023/07/03 08:11:17;;;;;;;11.68;2.60;;;20.30;63.70;;;;;;5054421;28;20044;-52
2023/07/03 08:13:44;;;;;;;4.80;1.88;;;20.00;63.60;;;;;;5047322;28;20528;-48
2023/07/03 08:16:11;;;;;;;5.43;2.03;;;20.30;62.90;;;;;;5031763;28;20354;-51
2023/07/03 08:18:38;;;;;;;7.80;1.90;;;20.30;58.30;;;;;;5051591;28;20033;-53
2023/07/03 08:21:05;;;;;;;7.22;2.05;;;19.70;58.90;;;;;;5050370;28;20032;-49
2023/07/03 08:23:32;;;;;;;7.15;1.40;;;19.50;57.50;;;;;;5048301;28;20029;-50
2023/07/03 08:26:02;;;;;;;8.48;1.83;;;19.50;60.00;;;;;;5051255;28;20035;-49
2023/07/03 08:28:29;;;;;;;;;;;19.40;59.60;;;;;;5029321;28;20025;-52
2023/07/03 08:30:57;;;;;;;7.30;1.98;;;19.00;60.30;;;;;;5047719;28;20269;-51
2023/07/03 08:33:25;;;;;;;6.30;1.73;;;18.90;59.70;;;;;;5049173;28;20721;-52
2023/07/03 08:35:52;;;;;;;4.93;1.48;;;18.70;60.40;;;;;;5046625;28;20557;-51
2023/07/03 08:38:19;;;;;;;6.07;1.52;;;18.40;61.60;;;;;;5049794;28;20463;-54
2023/07/03 08:40:46;;;;;;;4.68;1.95;;;18.30;63.00;;;;;;5052553;28;20033;-48
2023/07/03 08:43:18;;;;;;;6.45;1.88;;;18.30;62.00;;;;;;5051252;28;20029;-50
2023/07/03 08:45:46;;;;;;;8.02;2.08;;;18.40;62.60;;;;;;5043169;28;20051;-52
2023/07/03 08:48:29;;;;;;;6.55;1.38;;;18.40;63.10;;;;;;5050562;28;20044;-51
2023/07/03 08:51:12;;;;;;;8.20;2.03;;;18.40;62.90;;;;;;5049955;28;20119;-52
2023/07/03 08:53:41;;;;;;;5.63;1.77;;;18.30;63.30;;;;;;5049695;28;20029;-49
2023/07/03 08:56:20;;;;;;;6.47;1.50;;;18.40;63.50;;;;;;5046060;28;20064;-52
2023/07/03 08:58:52;;;;;;;9.83;1.83;;;18.20;64.30;;;;;;5047076;28;20066;-50
2023/07/03 09:01:20;;;;;;;7.78;1.65;;;18.10;64.10;;;;;;5047701;28;20279;-51
2023/07/03 09:04:25;;;;;;;9.52;2.40;;;18.00;64.80;;;;;;5032435;28;20079;-53
2023/07/03 09:07:17;;;;;;;12.27;2.85;;;18.10;65.30;;;;;;5057992;28;20028;-52
2023/07/03 09:09:45;;;;;;;6.43;1.45;;;18.90;65.00;;;;;;5026259;28;20041;-54
2023/07/03 09:12:27;;;;;;;10.88;2.40;;;19.90;63.40;;;;;;5048892;28;20588;-50
2023/07/03 09:15:20;;;;;;;9.82;2.38;;;20.40;62.70;;;;;;5044091;28;20026;-54
2023/07/03 09:17:51;;;;;;;8.23;2.08;;;21.00;62.10;;;;;;5066474;28;20033;-53
2023/07/03 09:20:19;;;;;;;6.47;1.77;;;21.00;62.00;;;;;;5069551;28;20029;-52
2023/07/03 09:22:53;;;;;;;7.93;1.88;;;21.30;61.70;;;;;;5053749;28;20116;-56
2023/07/03 09:25:31;;;;;;;10.95;1.73;;;20.80;59.70;;;;;;5066071;28;20024;-56
2023/07/03 09:28:01;;;;;;;6.40;1.60;;;21.40;61.30;;;;;;5069156;28;20031;-54
2023/07/03 09:30:31;;;;;;;8.80;1.65;;;21.40;57.60;;;;;;5066598;28;20124;-53
2023/07/03 09:32:58;;;;;;;8.00;2.03;;;21.20;58.40;;;;;;5067184;28;20037;-53
2023/07/03 09:35:35;;;;;;;6.28;2.28;;;20.40;58.80;;;;;;5068917;28;20090;-51
2023/07/03 09:38:10;;;;;;;10.63;2.85;;;19.90;61.20;;;;;;5070722;28;20068;-44
2023/07/03 09:40:41;;;;;;;12.38;2.55;;;18.90;66.00;;;;;;5063398;28;20159;-52
2023/07/03 09:43:22;;;;;;;6.43;1.92;;;17.00;72.40;;;;;;5062908;28;20052;-50
2023/07/03 09:45:51;;;;;;;9.48;2.53;;;16.00;78.60;;;;;;5068911;28;20095;-46
2023/07/03 09:48:26;;;;;;;9.00;2.30;;;16.00;80.60;;;;;;5069870;28;20040;-44
2023/07/03 09:50:54;;;;;;;7.68;2.33;;;16.20;82.50;;;;;;5062396;28;20032;-44
2023/07/03 09:53:25;;;;;;;8.82;1.98;;;16.40;82.20;;;;;;5066643;28;20339;-49
2023/07/03 09:55:57;;;;;;;8.70;2.58;;;16.50;83.00;;;;;;5065963;28;20026;-47
2023/07/03 09:58:26;;;;;;;6.28;2.28;;;16.60;83.80;;;;;;5067295;28;20537;-46
2023/07/03 10:00:56;;;;;;;7.30;2.33;;;16.80;83.00;;;;;;5052035;28;20467;-44
2023/07/03 10:03:28;;;;;;;6.93;1.85;;;16.80;82.80;;;;;;5071866;28;20025;-46
2023/07/03 10:06:17;;;;;;;6.50;2.38;;;16.80;81.90;;;;;;5067744;28;20024;-44
2023/07/03 10:08:50;;;;;;;10.50;3.17;;;16.90;82.40;;;;;;5068467;28;20039;-46
2023/07/03 10:11:35;;;;;;;9.00;2.88;;;17.10;82.50;;;;;;5064889;28;20032;-43
2023/07/03 10:14:07;;;;;;;7.32;2.47;;;17.40;82.30;;;;;;5067785;28;20020;-46
2023/07/03 10:16:35;;;;;;;6.03;2.00;;;17.70;82.60;;;;;;5060990;28;20071;-45
2023/07/03 10:19:03;;;;;;;9.40;2.05;;;18.30;82.10;;;;;;5063591;28;20033;-47
2023/07/03 10:21:33;;;;;;;6.15;2.35;;;18.90;80.50;;;;;;5065180;28;20039;-47
2023/07/03 10:24:00;;;;;;;6.90;1.67;;;19.60;79.00;;;;;;5065841;28;20032;-47
2023/07/03 10:26:38;;;;;;;7.53;2.10;;;19.80;78.80;;;;;;5051478;28;20052;-49
2023/07/03 10:29:25;;;;;;;9.68;1.98;;;20.10;77.20;;;;;;5067966;28;20143;-50
2023/07/03 10:32:09;;;;;;;8.18;1.77;;;20.60;73.50;;;;;;5063659;28;20045;-52
2023/07/03 10:35:01;;;;;;;7.25;2.38;;;20.10;72.40;;;;;;5068607;28;20028;-51
2023/07/03 10:37:28;;;;;;;6.20;1.63;;;19.90;70.50;;;;;;5047711;28;21738;-51
2023/07/03 10:40:00;;;;;;;7.03;2.03;;;19.90;69.20;;;;;;5047679;28;20028;-51
2023/07/03 10:42:41;;;;;;;7.55;1.75;;;19.50;65.80;;;;;;5066353;28;20102;-53
2023/07/03 10:45:13;;;;;;;5.85;1.70;;;18.90;65.10;;;;;;5062800;28;20031;-52
2023/07/03 10:48:01;;;;;;;5.93;1.73;;;18.40;65.90;;;;;;5067651;28;20094;-51
2023/07/03 10:50:50;;;;;;;4.68;1.10;;;18.20;64.60;;;;;;5063171;28;20020;-55
2023/07/03 10:53:39;;;;;;;11.07;2.13;;;17.90;67.00;;;;;;5060729;28;20048;-52
2023/07/03 10:56:31;;;;;;;7.35;1.40;;;18.10;66.20;;;;;;5065597;28;20039;-48
2023/07/03 10:59:25;;;;;;;6.40;1.45;;;18.10;66.20;;;;;;5048490;28;20101;-52
2023/07/03 11:02:16;;;;;;;8.57;1.98;;;18.00;66.30;;;;;;5060258;28;20071;-53
2023/07/03 11:05:04;;;;;;;9.93;1.77;;;18.10;67.10;;;;;;5059348;28;20040;-50
2023/07/03 11:07:36;;;;;;;10.50;1.67;;;18.10;67.80;;;;;;5065008;28;20035;-50
2023/07/03 11:10:20;;;;;;;3.83;1.30;;;17.80;66.20;;;;;;5056912;28;20017;-50
2023/07/03 11:13:17;;;;;;;4.50;1.58;;;17.70;67.90;;;;;;5061869;28;20639;-48
2023/07/03 11:15:46;;;;;;;10.95;1.95;;;17.60;68.80;;;;;;5056031;28;20056;-49
2023/07/03 11:18:33;;;;;;;6.28;1.55;;;17.60;67.10;;;;;;5063575;28;20044;-48
2023/07/03 11:21:29;;;;;;;6.32;1.48;;;17.70;66.60;;;;;;5061615;28;20115;-50
2023/07/03 11:24:13;;;;;;;7.63;1.70;;;17.60;66.70;;;;;;5066253;28;20028;-51
2023/07/03 11:26:45;;;;;;;5.25;1.63;;;17.50;67.70;;;;;;5069068;28;20043;-47
2023/07/03 11:29:13;;;;;;;9.05;1.75;;;17.50;67.80;;;;;;5061669;28;20043;-49
2023/07/03 11:31:43;;;;;;;11.05;2.20;;;17.40;67.80;;;;;;5044130;28;20730;-46
2023/07/03 11:34:11;;;;;;;;;;;17.10;70.50;;;;;;5060116;28;20085;-47
2023/07/03 11:36:52;;;;;;;8.85;2.67;;;16.70;74.10;;;;;;5063633;28;19909;-47
2023/07/03 11:39:28;;;;;;;6.10;2.20;;;16.50;76.20;;;;;;5049026;28;20071;-50
2023/07/03 11:42:05;;;;;;;5.75;1.80;;;16.40;77.40;;;;;;5070761;28;20024;-53
2023/07/03 11:44:56;;;;;;;9.65;2.15;;;16.20;77.90;;;;;;5061485;28;20069;-47
2023/07/03 11:47:33;;;;;;;9.52;2.78;;;16.10;79.60;;;;;;5071697;28;20086;-47
2023/07/03 11:50:03;;;;;;;10.95;2.83;;;16.00;80.40;;;;;;5066869;28;20024;-46
2023/07/03 11:52:34;;;;;;;7.55;2.40;;;15.70;80.50;;;;;;5073028;28;20103;-47
2023/07/03 11:55:05;;;;;;;6.35;1.77;;;15.30;81.10;;;;;;5071019;28;20028;-46
2023/07/03 11:58:01;;;;;;;4.85;1.33;;;15.10;82.40;;;;;;5068301;28;20103;-49
2023/07/03 12:00:31;;;;;;;5.13;1.25;;;14.90;80.60;;;;;;5067734;28;20158;-45
2023/07/03 12:03:37;;;;;;;6.63;1.33;;;14.90;80.40;;;;;;5071578;28;20066;-52
2023/07/03 12:06:07;;;;;;;5.80;1.50;;;14.90;81.40;;;;;;5073574;28;20043;-46
2023/07/03 12:08:38;;;;;;;8.65;1.73;;;14.90;81.20;;;;;;5069210;28;20467;-46
2023/07/03 12:11:06;;;;;;;5.97;2.22;;;14.80;82.20;;;;;;5056343;28;20048;-45
2023/07/03 12:13:41;;;;;;;5.63;1.25;;;14.90;82.70;;;;;;5069827;28;20020;-45
2023/07/03 12:16:25;;;;;;;8.57;2.20;;;14.80;81.10;;;;;;5068801;28;20071;-48
2023/07/03 12:19:07;;;;;;;4.65;1.40;;;14.90;80.50;;;;;;5056953;28;20425;-44
2023/07/03 12:21:44;;;;;;;8.82;1.83;;;14.90;80.20;;;;;;5070357;28;20020;-44
2023/07/03 12:24:24;;;;;;;5.63;1.42;;;14.90;80.80;;;;;;5054413;28;20415;-43
2023/07/03 12:27:00;;;;;;;6.63;1.30;;;15.10;81.20;;;;;;5070354;28;20013;-44
2023/07/03 12:29:28;;;;;;;3.65;1.10;;;15.10;81.50;;;;;;5069011;28;20028;-44
2023/07/03 12:32:10;;;;;;;4.25;1.10;;;15.00;80.50;;;;;;5067553;28;20047;-45
2023/07/03 12:34:42;;;;;;;7.57;1.88;;;15.00;80.30;;;;;;5053147;28;20075;-45
2023/07/03 12:37:19;;;;;;;3.60;1.05;;;15.10;78.90;;;;;;5063076;28;20036;-45
2023/07/03 12:39:46;;;;;;;3.90;1.10;;;15.20;78.60;;;;;;5067159;28;20850;-47
2023/07/03 12:42:20;;;;;;;5.30;1.58;;;15.40;79.20;;;;;;5053630;28;20025;-45
2023/07/03 12:44:54;;;;;;;3.75;1.48;;;15.50;79.10;;;;;;5066955;28;20442;-45
2023/07/03 12:47:22;;;;;;;6.80;1.67;;;15.70;78.70;;;;;;5066028;28;20229;-47
2023/07/03 12:50:13;;;;;;;2.20;0.75;;;15.90;78.30;;;;;;5052435;28;20327;-46
2023/07/03 12:52:41;;;;;;;4.85;1.30;;;16.10;78.30;;;;;;5065557;28;20040;-46
2023/07/03 12:55:08;;;;;;;2.28;0.80;;;16.30;77.20;;;;;;5067196;28;20024;-46
2023/07/03 12:57:37;;;;;;;3.25;1.10;;;16.40;75.00;;;;;;5067196;28;20064;-47
2023/07/03 13:00:06;;;;;;;4.60;0.80;;;16.40;74.70;;;;;;5068731;28;20027;-47
2023/07/03 13:02:36;;;;;;;4.33;1.57;;;16.40;73.60;;;;;;5041410;28;20052;-46